createdAt,value
2023-12-08T00:02:01.238Z,50.97
2023-12-08T00:04:27.699Z,54.67
2023-12-08T00:06:54.159Z,55.47
2023-12-08T00:09:20.580Z,51.30
2023-12-08T00:11:47.011Z,46.00
2023-12-08T00:14:13.496Z,46.33
2023-12-08T00:16:39.985Z,51.72
2023-12-08T00:19:07.493Z,46.65
2023-12-08T00:21:34.365Z,50.78
2023-12-08T00:24:00.827Z,51.72
2023-12-08T00:26:27.245Z,48.03
2023-12-08T00:28:53.641Z,53.33
2023-12-08T00:31:21.067Z,47.95
2023-12-08T00:33:47.548Z,47.63
2023-12-08T00:36:16.984Z,47.63
2023-12-08T00:38:45.707Z,48.10
2023-12-08T00:41:12.256Z,48.97
2023-12-08T00:43:38.711Z,46.88
2023-12-08T00:46:05.486Z,51.97
2023-12-08T00:48:32.049Z,49.95
2023-12-08T00:50:58.585Z,46.05
2023-12-08T00:53:25.067Z,50.30
2023-12-08T00:55:51.478Z,47.30
2023-12-08T00:58:18.022Z,52.25
2023-12-08T01:00:45.617Z,45.13
2023-12-08T01:03:13.051Z,52.08
2023-12-08T01:05:39.728Z,48.20
2023-12-08T01:08:06.582Z,48.80
2023-12-08T01:10:33.155Z,46.75
2023-12-08T01:12:59.796Z,47.10
2023-12-08T01:15:26.200Z,39.42
2023-12-08T01:17:52.698Z,44.58
2023-12-08T01:20:19.299Z,43.83
2023-12-08T01:22:45.820Z,47.33
2023-12-08T01:25:12.435Z,42.97
2023-12-08T01:27:38.874Z,45.75
2023-12-08T01:30:06.388Z,48.15
2023-12-08T01:32:33.094Z,46.33
2023-12-08T01:34:59.527Z,40.60
2023-12-08T01:37:26.120Z,39.83
2023-12-08T01:39:52.736Z,41.03
2023-12-08T01:42:19.261Z,40.95
2023-12-08T01:44:45.688Z,41.58
2023-12-08T01:47:13.356Z,39.13
2023-12-08T01:49:40.842Z,38.30
2023-12-08T01:52:08.683Z,42.85
2023-12-08T01:54:35.433Z,34.55
2023-12-08T01:57:03.410Z,40.88
2023-12-08T01:59:31.534Z,41.35
2023-12-08T02:01:59.149Z,38.95
2023-12-08T02:04:26.629Z,34.03
2023-12-08T02:06:53.785Z,37.22
2023-12-08T02:09:21.209Z,34.50
2023-12-08T02:11:47.847Z,38.53
2023-12-08T02:14:16.534Z,41.25
2023-12-08T02:16:50.079Z,38.33
2023-12-08T02:19:18.341Z,32.83
2023-12-08T02:21:45.423Z,37.97
2023-12-08T02:24:12.017Z,41.28
2023-12-08T02:26:38.983Z,39.70
2023-12-08T02:29:09.690Z,41.88
2023-12-08T02:31:42.145Z,32.92
2023-12-08T02:34:11.087Z,38.33
2023-12-08T02:36:39.321Z,37.88
2023-12-08T02:39:07.860Z,35.35
2023-12-08T02:41:34.376Z,36.35
2023-12-08T02:44:00.978Z,33.13
2023-12-08T02:46:27.409Z,33.53
2023-12-08T02:48:55.079Z,31.38
2023-12-08T02:51:22.187Z,31.58
2023-12-08T02:53:48.687Z,30.98
2023-12-08T02:56:15.064Z,33.75
2023-12-08T02:58:41.455Z,31.77
2023-12-08T03:01:07.880Z,35.17
2023-12-08T03:03:34.381Z,35.17
2023-12-08T03:06:00.852Z,28.90
2023-12-08T03:08:27.234Z,29.23
2023-12-08T03:10:53.641Z,33.53
2023-12-08T03:13:20.964Z,31.83
2023-12-08T03:15:47.346Z,30.30
2023-12-08T03:18:13.877Z,29.85
2023-12-08T03:20:40.355Z,28.67
2023-12-08T03:23:06.943Z,32.28
2023-12-08T03:25:33.328Z,34.55
2023-12-08T03:27:59.754Z,29.20
2023-12-08T03:30:27.203Z,30.90
2023-12-08T03:32:53.686Z,26.05
2023-12-08T03:35:21.590Z,28.88
2023-12-08T03:37:47.980Z,27.20
2023-12-08T03:40:14.513Z,25.88
2023-12-08T03:42:40.947Z,27.25
2023-12-08T03:45:07.630Z,26.02
2023-12-08T03:47:34.455Z,24.05
2023-12-08T03:50:01.185Z,24.02
2023-12-08T03:52:27.572Z,27.08
2023-12-08T03:54:53.968Z,22.77
2023-12-08T03:57:21.172Z,24.52
2023-12-08T03:59:47.763Z,23.08
2023-12-08T04:02:14.219Z,25.88
2023-12-08T04:04:42.532Z,21.92
2023-12-08T04:07:08.923Z,27.30
2023-12-08T04:09:35.364Z,24.17
2023-12-08T04:12:01.787Z,23.48
2023-12-08T04:14:28.198Z,26.90
2023-12-08T04:16:54.588Z,23.70
2023-12-08T04:19:21.331Z,22.65
2023-12-08T04:21:48.001Z,22.35
2023-12-08T04:24:14.497Z,20.33
2023-12-08T04:26:45.151Z,19.60
2023-12-08T04:29:11.570Z,25.02
2023-12-08T04:31:38.035Z,24.05
2023-12-08T04:34:04.822Z,22.77
2023-12-08T04:36:31.376Z,23.67
2023-12-08T04:38:58.328Z,25.10
2023-12-08T04:41:24.726Z,27.02
2023-12-08T04:43:51.128Z,21.85
2023-12-08T04:46:19.057Z,19.60
2023-12-08T04:48:45.666Z,23.27
2023-12-08T04:51:12.233Z,22.98
2023-12-08T04:53:38.683Z,17.10
2023-12-08T04:56:05.597Z,22.08
2023-12-08T04:58:32.035Z,19.83
2023-12-08T05:00:58.500Z,20.23
2023-12-08T05:03:25.307Z,19.50
2023-12-08T05:05:52.024Z,20.08
2023-12-08T05:08:18.498Z,22.20
2023-12-08T05:10:45.007Z,24.30
2023-12-08T05:13:12.446Z,20.63
2023-12-08T05:15:38.995Z,20.70
2023-12-08T05:18:05.768Z,22.75
2023-12-08T05:20:32.411Z,21.17
2023-12-08T05:22:58.800Z,20.75
2023-12-08T05:25:25.231Z,20.63
2023-12-08T05:27:51.753Z,28.48
2023-12-08T05:30:18.206Z,25.77
2023-12-08T05:32:45.159Z,21.95
2023-12-08T05:35:11.731Z,23.52
2023-12-08T05:37:38.232Z,19.25
2023-12-08T05:40:05.294Z,25.23
2023-12-08T05:42:31.760Z,27.73
2023-12-08T05:44:58.296Z,23.33
2023-12-08T05:47:25.110Z,25.13
2023-12-08T05:49:51.709Z,31.80
2023-12-08T05:52:18.109Z,24.60
2023-12-08T05:54:44.607Z,26.15
2023-12-08T05:57:11.109Z,26.15
2023-12-08T05:59:37.603Z,26.48
2023-12-08T06:02:04.257Z,29.27
2023-12-08T06:04:30.644Z,29.05
2023-12-08T06:06:57.118Z,28.02
2023-12-08T06:09:24.636Z,25.33
2023-12-08T06:11:51.618Z,24.67
2023-12-08T06:14:18.127Z,25.88
2023-12-08T06:16:44.817Z,26.40
2023-12-08T06:19:11.538Z,25.73
2023-12-08T06:21:38.054Z,24.17
2023-12-08T06:24:04.839Z,30.23
2023-12-08T06:26:31.518Z,25.98
2023-12-08T06:28:58.161Z,22.67
2023-12-08T06:31:24.549Z,26.67
2023-12-08T06:34:04.821Z,25.52
2023-12-08T06:36:37.378Z,26.52
2023-12-08T06:39:06.347Z,31.02
2023-12-08T06:41:33.259Z,29.77
2023-12-08T06:43:59.691Z,26.25
2023-12-08T06:46:26.089Z,32.30
2023-12-08T06:48:52.676Z,29.83
2023-12-08T06:51:19.253Z,31.08
2023-12-08T06:53:45.676Z,32.42
2023-12-08T06:56:12.488Z,33.15
2023-12-08T06:58:38.940Z,29.17
2023-12-08T07:01:05.849Z,29.58
2023-12-08T07:03:32.322Z,38.10
2023-12-08T07:05:58.836Z,32.60
2023-12-08T07:08:25.268Z,29.83
2023-12-08T07:10:52.060Z,35.92
2023-12-08T07:13:18.547Z,38.38
2023-12-08T07:15:44.942Z,32.75
2023-12-08T07:18:11.506Z,33.30
2023-12-08T07:20:38.477Z,32.28
2023-12-08T07:23:04.947Z,32.33
2023-12-08T07:25:33.060Z,35.67
2023-12-08T07:27:59.557Z,37.80
2023-12-08T07:30:26.023Z,33.97
2023-12-08T07:32:52.825Z,34.50
2023-12-08T07:35:20.078Z,36.33
2023-12-08T07:37:46.663Z,40.88
2023-12-08T07:40:14.693Z,37.80
2023-12-08T07:42:42.977Z,38.95
2023-12-08T07:45:10.199Z,38.78
2023-12-08T07:47:39.027Z,34.33
2023-12-08T07:50:07.012Z,34.83
2023-12-08T07:52:33.762Z,32.65
2023-12-08T07:55:00.279Z,31.13
2023-12-08T07:57:26.988Z,34.33
2023-12-08T07:59:54.787Z,44.22
2023-12-08T08:02:21.540Z,36.65
2023-12-08T08:04:47.944Z,33.95
2023-12-08T08:07:14.383Z,31.35
2023-12-08T08:09:40.806Z,31.33
2023-12-08T08:12:07.980Z,31.20
2023-12-08T08:14:34.492Z,30.95
2023-12-08T08:17:00.910Z,29.92
2023-12-08T08:19:27.317Z,34.83
2023-12-08T08:22:27.450Z,29.95
2023-12-08T08:24:40.177Z,32.20
2023-12-08T08:27:06.714Z,32.42
2023-12-08T08:29:33.810Z,37.25
2023-12-08T08:32:00.261Z,32.47
2023-12-08T08:34:26.770Z,31.73
2023-12-08T08:36:53.241Z,31.08
2023-12-08T08:39:19.747Z,32.67
2023-12-08T08:41:46.224Z,31.58
2023-12-08T08:44:12.667Z,32.45
2023-12-08T08:46:41.260Z,36.33
2023-12-08T08:49:08.111Z,32.20
2023-12-08T08:51:39.246Z,33.08
2023-12-08T08:54:05.686Z,36.30
2023-12-08T08:56:32.676Z,33.83
2023-12-08T08:58:59.180Z,33.75
2023-12-08T09:01:25.571Z,37.65
2023-12-08T09:03:52.366Z,33.33
2023-12-08T09:06:19.150Z,36.33
2023-12-08T09:08:45.753Z,34.55
2023-12-08T09:11:13.053Z,39.90
2023-12-08T09:13:39.616Z,36.35
2023-12-08T09:16:06.113Z,40.40
2023-12-08T09:18:33.313Z,43.60
2023-12-08T09:20:59.873Z,37.58
2023-12-08T09:23:26.932Z,38.78
2023-12-08T09:25:54.769Z,39.75
2023-12-08T09:28:22.088Z,36.03
2023-12-08T09:30:48.487Z,39.85
2023-12-08T09:33:15.604Z,34.42
2023-12-08T09:35:42.445Z,38.60
2023-12-08T09:38:12.515Z,33.63
2023-12-08T09:40:44.509Z,34.30
2023-12-08T09:43:16.263Z,39.33
2023-12-08T09:45:45.277Z,35.28
2023-12-08T09:48:13.596Z,36.22
2023-12-08T09:50:41.840Z,35.03
2023-12-08T09:53:09.275Z,39.65
2023-12-08T09:55:39.043Z,34.15
2023-12-08T09:58:06.046Z,33.00
2023-12-08T10:00:33.654Z,32.55
2023-12-08T10:03:01.499Z,34.72
2023-12-08T10:05:29.046Z,32.65
2023-12-08T10:07:55.990Z,29.80
2023-12-08T10:10:25.289Z,32.28
2023-12-08T10:12:51.794Z,33.40
2023-12-08T10:15:18.598Z,32.88
2023-12-08T10:17:50.676Z,39.38
2023-12-08T10:20:18.767Z,33.30
2023-12-08T10:22:47.457Z,34.25
2023-12-08T10:25:17.223Z,34.75
2023-12-08T10:27:46.542Z,36.70
2023-12-08T10:30:13.966Z,32.30
2023-12-08T10:32:40.512Z,29.55
2023-12-08T10:35:07.456Z,33.70
2023-12-08T10:37:34.039Z,35.10
2023-12-08T10:40:01.117Z,35.13
2023-12-08T10:42:27.773Z,29.88
2023-12-08T10:44:54.401Z,32.63
2023-12-08T10:47:22.014Z,34.33
2023-12-08T10:49:50.315Z,37.33
2023-12-08T10:52:17.590Z,32.85
2023-12-08T10:54:43.973Z,30.95
2023-12-08T10:57:10.460Z,32.25
2023-12-08T10:59:41.794Z,28.27
2023-12-08T11:02:21.330Z,31.30
2023-12-08T11:04:55.310Z,31.52
2023-12-08T11:07:32.429Z,32.13
2023-12-08T11:10:04.099Z,29.08
2023-12-08T11:12:35.100Z,30.23
2023-12-08T11:15:10.566Z,31.73
2023-12-08T11:17:53.858Z,31.67
2023-12-08T11:20:21.452Z,34.40
2023-12-08T11:22:48.335Z,34.20
2023-12-08T11:25:22.578Z,36.65
2023-12-08T11:28:13.430Z,34.42
2023-12-08T11:30:55.524Z,31.70
2023-12-08T11:33:55.657Z,36.65
2023-12-08T11:36:22.326Z,31.20
2023-12-08T11:38:49.011Z,37.60
2023-12-08T11:41:17.121Z,39.75
2023-12-08T11:43:45.851Z,35.10
2023-12-08T11:46:14.889Z,39.65
2023-12-08T11:48:43.623Z,36.63
2023-12-08T11:51:12.006Z,38.63
2023-12-08T11:54:08.059Z,43.00
2023-12-08T11:56:39.829Z,37.58
2023-12-08T11:59:06.520Z,37.45
2023-12-08T12:01:32.997Z,35.00
2023-12-08T12:04:00.574Z,35.33
2023-12-08T12:06:30.484Z,40.45
2023-12-08T12:09:00.580Z,46.90
2023-12-08T12:11:36.423Z,37.28
2023-12-08T12:14:05.939Z,38.55
2023-12-08T12:16:32.356Z,38.90
2023-12-08T12:18:58.912Z,39.70
2023-12-08T12:21:25.489Z,39.35
2023-12-08T12:23:51.901Z,50.38
2023-12-08T12:26:21.840Z,39.30
2023-12-08T12:28:49.312Z,40.85
2023-12-08T12:31:16.830Z,40.67
2023-12-08T12:33:49.891Z,34.60
2023-12-08T12:36:17.097Z,54.30
2023-12-08T12:38:43.922Z,40.47
2023-12-08T12:41:21.381Z,45.20
2023-12-08T12:43:47.869Z,39.92
2023-12-08T12:46:14.373Z,41.92
2023-12-08T12:48:41.043Z,36.75
2023-12-08T12:51:08.761Z,35.17
2023-12-08T12:53:46.868Z,37.83
2023-12-08T12:56:13.594Z,39.10
2023-12-08T12:58:40.847Z,42.40
2023-12-08T13:01:12.641Z,43.22
2023-12-08T13:03:46.957Z,35.42
2023-12-08T13:06:13.728Z,38.28
2023-12-08T13:08:47.405Z,37.33
2023-12-08T13:11:13.823Z,35.45
2023-12-08T13:13:40.252Z,37.40
2023-12-08T13:16:08.213Z,41.50
2023-12-08T13:18:35.063Z,34.65
2023-12-08T13:21:01.657Z,37.67
2023-12-08T13:23:28.266Z,40.40
2023-12-08T13:25:54.780Z,37.10
2023-12-08T13:28:21.156Z,36.50
2023-12-08T13:30:47.779Z,38.00
2023-12-08T13:33:14.285Z,35.55
2023-12-08T13:35:40.766Z,36.65
2023-12-08T13:38:07.339Z,36.97
2023-12-08T13:40:33.777Z,39.72
2023-12-08T13:43:00.236Z,39.92
2023-12-08T13:45:26.764Z,36.75
2023-12-08T13:47:53.369Z,37.22
2023-12-08T13:50:20.244Z,39.75
2023-12-08T13:52:46.684Z,37.83
2023-12-08T13:55:13.152Z,38.33
2023-12-08T13:57:41.267Z,41.03
2023-12-08T14:00:08.539Z,30.50
2023-12-08T14:02:35.058Z,42.58
2023-12-08T14:05:01.519Z,33.33
2023-12-08T14:07:28.280Z,34.55
2023-12-08T14:09:55.064Z,38.75
2023-12-08T14:12:21.746Z,37.95
2023-12-08T14:14:48.460Z,37.90
2023-12-08T14:17:16.482Z,32.80
2023-12-08T14:19:43.263Z,33.42
2023-12-08T14:22:09.994Z,37.92
2023-12-08T14:24:36.401Z,38.22
2023-12-08T14:27:02.817Z,38.50
2023-12-08T14:29:30.016Z,36.42
2023-12-08T14:31:56.627Z,37.15
2023-12-08T14:34:23.225Z,35.85
2023-12-08T14:36:50.288Z,40.85
2023-12-08T14:39:18.650Z,33.72
2023-12-08T14:41:45.360Z,35.78
2023-12-08T14:44:11.814Z,39.50
2023-12-08T14:46:38.215Z,43.35
2023-12-08T14:49:05.999Z,37.50
2023-12-08T14:51:32.783Z,41.78
2023-12-08T14:53:59.318Z,40.40
2023-12-08T14:56:27.031Z,37.72
2023-12-08T14:58:53.609Z,41.63
2023-12-08T15:01:22.178Z,46.10
2023-12-08T15:03:48.803Z,42.28
2023-12-08T15:06:15.426Z,43.15
2023-12-08T15:08:42.264Z,38.58
2023-12-08T15:11:10.164Z,43.90
2023-12-08T15:13:36.652Z,38.63
2023-12-08T15:16:03.373Z,36.33
2023-12-08T15:18:30.073Z,39.92
2023-12-08T15:20:56.852Z,43.63
2023-12-08T15:23:24.963Z,39.20
2023-12-08T15:25:53.860Z,46.75
2023-12-08T15:28:20.347Z,40.83
2023-12-08T15:30:47.130Z,38.35
2023-12-08T15:33:13.762Z,37.42
2023-12-08T15:35:40.350Z,45.13
2023-12-08T15:38:07.491Z,42.53
2023-12-08T15:40:36.733Z,41.88
2023-12-08T15:43:04.018Z,46.33
2023-12-08T15:45:30.551Z,46.30
2023-12-08T15:47:57.246Z,48.00
2023-12-08T15:50:23.748Z,39.92
2023-12-08T15:52:50.274Z,46.83
2023-12-08T15:55:16.686Z,45.85
2023-12-08T15:57:43.872Z,42.13
2023-12-08T16:00:10.612Z,44.50
2023-12-08T16:02:40.270Z,47.13
2023-12-08T16:05:07.007Z,50.33
2023-12-08T16:07:33.461Z,51.15
2023-12-08T16:09:59.932Z,42.85
2023-12-08T16:12:27.018Z,44.85
2023-12-08T16:14:53.785Z,43.75
2023-12-08T16:17:21.379Z,41.15
2023-12-08T16:19:47.896Z,49.13
2023-12-08T16:22:14.482Z,41.95
2023-12-08T16:24:43.786Z,47.72
2023-12-08T16:27:10.390Z,48.58
2023-12-08T16:29:36.914Z,46.90
2023-12-08T16:32:03.548Z,49.35
2023-12-08T16:34:29.971Z,49.22
2023-12-08T16:36:56.988Z,51.13
2023-12-08T16:39:24.261Z,45.53
2023-12-08T16:41:51.255Z,43.50
2023-12-08T16:44:17.757Z,47.78
2023-12-08T16:46:44.587Z,53.63
2023-12-08T16:49:11.513Z,51.88
2023-12-08T16:51:38.174Z,45.40
2023-12-08T16:54:04.974Z,46.75
2023-12-08T16:56:31.692Z,45.85
2023-12-08T16:58:58.128Z,44.50
2023-12-08T17:01:25.113Z,47.90
2023-12-08T17:03:51.725Z,48.25
2023-12-08T17:06:18.878Z,53.75
2023-12-08T17:08:45.700Z,43.17
2023-12-08T17:11:12.128Z,44.30
2023-12-08T17:13:38.691Z,48.70
2023-12-08T17:16:09.085Z,50.80
2023-12-08T17:18:35.690Z,47.60
2023-12-08T17:21:02.313Z,56.80
2023-12-08T17:23:28.912Z,53.25
2023-12-08T17:25:55.625Z,75.10
2023-12-08T17:28:22.147Z,41.95
2023-12-08T17:30:48.662Z,59.50
2023-12-08T17:33:15.977Z,51.67
2023-12-08T17:35:44.049Z,44.28
2023-12-08T17:38:16.699Z,50.47
2023-12-08T17:40:44.374Z,57.30
2023-12-08T17:43:11.897Z,53.63
2023-12-08T17:45:39.046Z,59.38
2023-12-08T17:48:08.763Z,53.90
2023-12-08T17:50:35.369Z,57.30
2023-12-08T17:53:01.804Z,53.15
2023-12-08T17:55:28.341Z,56.58
2023-12-08T17:57:54.939Z,55.67
2023-12-08T18:00:21.534Z,52.38
2023-12-08T18:02:52.167Z,56.38
2023-12-08T18:05:18.937Z,53.78
2023-12-08T18:07:45.381Z,55.22
2023-12-08T18:10:11.929Z,49.08
2023-12-08T18:12:39.146Z,46.45
2023-12-08T18:15:06.355Z,48.97
2023-12-08T18:17:32.880Z,51.97
2023-12-08T18:20:00.999Z,52.97
2023-12-08T18:22:29.056Z,50.75
2023-12-08T18:24:56.002Z,55.38
2023-12-08T18:27:34.168Z,50.33
2023-12-08T18:30:09.299Z,48.58
2023-12-08T18:32:35.831Z,48.20
2023-12-08T18:35:02.278Z,44.85
2023-12-08T18:37:28.764Z,50.25
2023-12-08T18:39:56.276Z,43.67
2023-12-08T18:42:23.202Z,52.25
2023-12-08T18:44:49.749Z,46.72
2023-12-08T18:47:17.487Z,46.80
2023-12-08T18:49:43.996Z,52.03
2023-12-08T18:52:10.443Z,46.83
2023-12-08T18:54:37.026Z,53.40
2023-12-08T18:57:03.854Z,49.92
2023-12-08T18:59:30.362Z,50.95
2023-12-08T19:01:56.754Z,43.88
2023-12-08T19:04:23.124Z,49.53
2023-12-08T19:06:49.556Z,51.03
2023-12-08T19:09:16.192Z,45.00
2023-12-08T19:11:42.623Z,49.63
2023-12-08T19:14:09.114Z,50.30
2023-12-08T19:16:35.841Z,51.65
2023-12-08T19:19:03.563Z,49.08
2023-12-08T19:21:30.051Z,54.80
2023-12-08T19:23:56.463Z,47.72
2023-12-08T19:26:22.882Z,51.42
2023-12-08T19:28:49.261Z,49.22
2023-12-08T19:31:15.859Z,48.92
2023-12-08T19:33:43.059Z,54.47
2023-12-08T19:36:10.210Z,56.00
2023-12-08T19:38:36.729Z,48.42
2023-12-08T19:41:03.778Z,51.47
2023-12-08T19:43:30.325Z,51.47
2023-12-08T19:45:58.316Z,53.05
2023-12-08T19:48:24.768Z,47.95
2023-12-08T19:50:51.235Z,51.60
2023-12-08T19:53:19.045Z,48.00
2023-12-08T19:55:45.429Z,50.17
2023-12-08T19:58:12.096Z,54.78
2023-12-08T20:00:38.553Z,55.70
2023-12-08T20:03:06.405Z,58.83
2023-12-08T20:05:33.027Z,49.42
2023-12-08T20:07:59.562Z,48.13
2023-12-08T20:10:25.932Z,55.70
2023-12-08T20:12:52.392Z,54.08
2023-12-08T20:15:27.484Z,53.47
2023-12-08T20:17:55.069Z,52.40
2023-12-08T20:20:21.625Z,58.00
2023-12-08T20:22:48.072Z,62.05
2023-12-08T20:25:18.031Z,50.80
2023-12-08T20:27:46.954Z,64.25
2023-12-08T20:30:15.609Z,53.30
2023-12-08T20:32:42.113Z,57.83
2023-12-08T20:35:09.069Z,53.88
2023-12-08T20:37:35.505Z,52.67
2023-12-08T20:40:01.986Z,59.40
2023-12-08T20:42:30.594Z,57.40
2023-12-08T20:44:57.116Z,54.92
2023-12-08T20:47:23.654Z,59.35
2023-12-08T20:49:50.154Z,60.35
2023-12-08T20:52:16.595Z,57.65
2023-12-08T20:54:42.993Z,50.88
2023-12-08T20:57:09.443Z,52.38
2023-12-08T20:59:35.863Z,53.33
2023-12-08T21:02:02.787Z,54.45
2023-12-08T21:04:29.237Z,60.53
2023-12-08T21:06:57.397Z,59.97
2023-12-08T21:09:24.166Z,54.88
2023-12-08T21:11:50.678Z,65.38
2023-12-08T21:14:17.287Z,54.22
2023-12-08T21:16:43.657Z,73.88
2023-12-08T21:19:10.260Z,59.47
2023-12-08T21:21:37.467Z,46.78
2023-12-08T21:24:04.041Z,53.95
2023-12-08T21:26:30.617Z,59.35
2023-12-08T21:28:57.001Z,57.20
2023-12-08T21:31:23.841Z,63.83
2023-12-08T21:33:50.783Z,58.25
2023-12-08T21:36:17.477Z,61.28
2023-12-08T21:38:43.977Z,59.47
2023-12-08T21:41:10.431Z,59.15
2023-12-08T21:43:36.881Z,51.22
2023-12-08T21:46:03.493Z,71.57
2023-12-08T21:48:30.002Z,47.67
2023-12-08T21:50:56.561Z,63.53
2023-12-08T21:53:22.977Z,78.68
2023-12-08T21:55:49.417Z,64.63
2023-12-08T21:58:17.201Z,70.30
2023-12-08T22:00:44.668Z,76.80
2023-12-08T22:03:11.113Z,57.28
2023-12-08T22:05:37.792Z,75.45
2023-12-08T22:08:04.530Z,75.45
2023-12-08T22:10:31.024Z,81.90
2023-12-08T22:12:57.435Z,55.15
2023-12-08T22:15:23.889Z,94.88
2023-12-08T22:17:50.440Z,70.15
2023-12-08T22:20:17.400Z,64.68
2023-12-08T22:22:43.794Z,86.85
2023-12-08T22:25:11.290Z,89.00
2023-12-08T22:27:37.835Z,80.90
2023-12-08T22:30:05.989Z,107.88
2023-12-08T22:32:32.974Z,107.75
2023-12-08T22:34:59.448Z,100.97
2023-12-08T22:37:27.283Z,59.15
2023-12-08T22:39:54.166Z,49.42
2023-12-08T22:42:20.612Z,60.15
2023-12-08T22:44:47.043Z,56.03
2023-12-08T22:47:13.504Z,78.03
2023-12-08T22:49:40.369Z,75.07
2023-12-08T22:52:07.067Z,56.40
2023-12-08T22:54:33.635Z,140.45
2023-12-08T22:57:00.442Z,122.45
2023-12-08T22:59:26.895Z,106.07
2023-12-08T23:01:53.362Z,91.35
2023-12-08T23:04:19.880Z,59.75
2023-12-08T23:06:46.610Z,49.67
2023-12-08T23:09:13.097Z,84.20
2023-12-08T23:11:39.739Z,61.05
2023-12-08T23:14:06.182Z,89.70
2023-12-08T23:16:32.735Z,69.20
2023-12-08T23:18:59.355Z,53.70
2023-12-08T23:21:27.082Z,46.30
2023-12-08T23:23:53.649Z,48.70
2023-12-08T23:26:20.133Z,57.60
2023-12-08T23:28:46.822Z,68.93
2023-12-08T23:31:13.328Z,61.70
2023-12-08T23:33:40.178Z,57.10
2023-12-08T23:36:08.880Z,58.30
2023-12-08T23:38:35.765Z,57.95
2023-12-08T23:41:02.205Z,109.57
2023-12-08T23:43:28.621Z,69.10
2023-12-08T23:45:55.045Z,147.40
2023-12-08T23:48:21.986Z,75.60
2023-12-08T23:50:48.510Z,91.68
2023-12-08T23:53:15.890Z,48.78
2023-12-08T23:55:42.378Z,54.72
2023-12-08T23:58:08.763Z,40.55
